Time;durP1;ratioP1;P1;durP2;ratioP2;P2;SDS_P1;SDS_P2;PMS_P1;PMS_P2;Temp;Humidity;BMP_temperature;BMP_pressure;BME280_temperature;BME280_humidity;BME280_pressure;Samples;Min_cycle;Max_cycle;Signal;HPM_P1;HPM_P2
2024/01/04 00:02:45;;;;;;;5.63;2.25;;;;;;;8.67;100.00;99352.72;5102428;28;20040;-67
2024/01/04 00:05:33;;;;;;;4.53;1.90;;;;;;;8.65;100.00;99361.13;5107425;27;20048;-66
2024/01/04 00:08:21;;;;;;;7.20;2.55;;;;;;;8.63;100.00;99363.34;5089682;28;20074;-67
2024/01/04 00:11:09;;;;;;;6.22;2.35;;;;;;;8.63;100.00;99362.53;5106953;28;20646;-66
2024/01/04 00:13:58;;;;;;;5.88;2.80;;;;;;;8.59;100.00;99362.31;5079385;28;20044;-67
2024/01/04 00:16:46;;;;;;;5.18;1.83;;;;;;;8.60;100.00;99368.56;5097019;28;20048;-68
2024/01/04 00:19:34;;;;;;;3.42;1.60;;;;;;;8.59;100.00;99384.03;5115154;27;20087;-68
2024/01/04 00:22:22;;;;;;;4.63;1.60;;;;;;;8.60;100.00;99382.13;5117560;27;20035;-67
2024/01/04 00:25:10;;;;;;;5.13;2.03;;;;;;;8.59;100.00;99389.47;5091840;27;20520;-67
2024/01/04 00:27:59;;;;;;;4.85;1.80;;;;;;;8.62;100.00;99398.94;5104225;27;20475;-68
2024/01/04 00:30:47;;;;;;;8.30;2.10;;;;;;;8.59;100.00;99399.53;5086733;28;20047;-66
2024/01/04 00:33:35;;;;;;;4.22;1.60;;;;;;;8.60;100.00;99409.28;5113310;28;20108;-67
2024/01/04 00:36:23;;;;;;;4.15;1.80;;;;;;;8.59;100.00;99416.63;5097882;27;20074;-67
2024/01/04 00:39:11;;;;;;;2.25;1.48;;;;;;;8.59;100.00;99418.53;5099104;27;20440;-67
2024/01/04 00:41:59;;;;;;;6.07;1.77;;;;;;;8.58;100.00;99433.19;5088615;28;20051;-67
2024/01/04 00:44:47;;;;;;;6.18;1.90;;;;;;;8.58;100.00;99441.31;5112540;28;20103;-67
2024/01/04 00:47:35;;;;;;;4.95;1.60;;;;;;;8.55;100.00;99452.78;5111762;28;20035;-67
2024/01/04 00:50:24;;;;;;;5.60;1.77;;;;;;;8.52;100.00;99460.38;5095520;28;20407;-67
2024/01/04 00:53:12;;;;;;;4.85;1.50;;;;;;;8.50;100.00;99457.16;5097969;28;20070;-67
2024/01/04 00:56:00;;;;;;;4.10;1.45;;;;;;;8.50;100.00;99469.91;5097234;28;20036;-67
2024/01/04 00:58:47;;;;;;;4.63;1.95;;;;;;;8.47;100.00;99471.31;5083433;28;20514;-67
2024/01/04 01:01:35;;;;;;;4.32;1.70;;;;;;;8.48;100.00;99481.06;5100099;27;20078;-68
2024/01/04 01:04:23;;;;;;;5.50;1.88;;;;;;;8.46;100.00;99480.53;5092299;28;20051;-67
2024/01/04 01:07:12;;;;;;;6.65;2.03;;;;;;;8.49;100.00;99492.72;5076371;28;20068;-67
2024/01/04 01:10:00;;;;;;;6.95;1.73;;;;;;;8.49;100.00;99509.00;5097225;27;20122;-67
2024/01/04 01:12:48;;;;;;;5.35;1.85;;;;;;;8.47;100.00;99511.22;5099005;28;20036;-67
2024/01/04 01:15:36;;;;;;;4.85;1.88;;;;;;;8.45;100.00;99514.22;5097713;28;20070;-67
2024/01/04 01:18:24;;;;;;;5.00;1.73;;;;;;;8.43;100.00;99534.59;5097370;28;20039;-67
2024/01/04 01:21:12;;;;;;;6.20;2.10;;;;;;;8.43;100.00;99532.69;5096103;28;20095;-67
2024/01/04 01:24:00;;;;;;;4.47;1.92;;;;;;;8.42;100.00;99541.94;5098305;28;20051;-67
2024/01/04 01:26:48;;;;;;;8.10;2.17;;;;;;;8.42;100.00;99544.66;5120363;28;20035;-67
2024/01/04 01:29:36;;;;;;;6.07;1.92;;;;;;;8.42;100.00;99550.06;5134312;27;20051;-67
2024/01/04 01:32:24;;;;;;;8.52;2.63;;;;;;;8.44;100.00;99553.31;5111445;28;20044;-66
2024/01/04 01:35:14;;;;;;;10.07;2.45;;;;;;;8.45;100.00;99557.63;5128466;27;20550;-67
2024/01/04 01:38:02;;;;;;;7.38;2.35;;;;;;;8.47;100.00;99563.59;5133224;27;20051;-67
2024/01/04 01:40:50;;;;;;;11.05;2.70;;;;;;;8.50;100.00;99564.94;5097848;27;20044;-68
2024/01/04 01:43:38;;;;;;;5.35;2.10;;;;;;;8.51;100.00;99561.09;5108616;28;20510;-67
2024/01/04 01:46:27;;;;;;;8.90;2.78;;;;;;;8.51;100.00;99572.81;5097825;28;20065;-67
2024/01/04 01:49:15;;;;;;;5.65;2.13;;;;;;;8.52;100.00;99579.84;5117760;27;20132;-67
2024/01/04 01:52:03;;;;;;;7.00;2.08;;;;;;;8.52;100.00;99579.84;5120375;27;20071;-67
2024/01/04 01:54:52;;;;;;;7.90;2.47;;;;;;;8.55;100.00;99593.94;5097356;28;20052;-67
2024/01/04 01:57:40;;;;;;;10.40;3.05;;;;;;;8.58;100.00;99596.06;5097381;28;20124;-68
2024/01/04 02:00:28;;;;;;;6.93;2.40;;;;;;;8.58;100.00;99593.38;5097173;28;20081;-66
2024/01/04 02:03:16;;;;;;;10.02;2.17;;;;;;;8.57;100.00;99602.63;5097813;28;20050;-66
2024/01/04 02:06:04;;;;;;;12.93;2.72;;;;;;;8.58;100.00;99598.78;5064312;28;20047;-67
2024/01/04 02:08:52;;;;;;;6.55;2.45;;;;;;;8.56;100.00;99611.84;5117422;28;20039;-67
2024/01/04 02:11:41;;;;;;;6.30;2.30;;;;;;;8.57;100.00;99602.63;5132147;28;20047;-66
2024/01/04 02:14:29;;;;;;;8.73;2.95;;;;;;;8.55;100.00;99621.09;5091842;28;20054;-66
2024/01/04 02:17:17;;;;;;;8.10;3.30;;;;;;;8.56;100.00;99623.50;5076547;28;20044;-66
2024/01/04 02:20:06;;;;;;;10.50;2.78;;;;;;;8.55;100.00;99629.22;5062481;28;20090;-67
2024/01/04 02:22:54;;;;;;;7.63;2.60;;;;;;;8.52;100.00;99634.13;5081368;28;20156;-67
2024/01/04 02:25:42;;;;;;;7.00;2.38;;;;;;;8.53;100.00;99641.16;5075480;28;20059;-67
2024/01/04 02:28:30;;;;;;;7.30;2.22;;;;;;;8.51;100.00;99645.25;5080546;28;20512;-67
2024/01/04 02:31:19;;;;;;;7.85;2.42;;;;;;;8.49;100.00;99651.00;5080987;28;20511;-67
2024/01/04 02:34:07;;;;;;;8.07;2.60;;;;;;;8.51;100.00;99648.81;5106656;27;20035;-67
2024/01/04 02:36:56;;;;;;;9.20;2.55;;;;;;;8.51;100.00;99664.25;5100002;28;20040;-67
2024/01/04 02:39:44;;;;;;;5.68;2.42;;;;;;;8.51;100.00;99665.09;5100837;28;20050;-67
2024/01/04 02:42:32;;;;;;;9.30;2.70;;;;;;;8.50;100.00;99663.47;5100285;28;20044;-67
2024/01/04 02:45:20;;;;;;;7.75;2.55;;;;;;;8.50;100.00;99668.88;5112847;28;20055;-67
2024/01/04 02:48:08;;;;;;;7.25;2.40;;;;;;;8.52;100.00;99666.72;5114242;28;20492;-67
2024/01/04 02:50:56;;;;;;;11.10;3.17;;;;;;;8.55;100.00;99669.97;5114541;28;20514;-66
2024/01/04 02:53:44;;;;;;;9.32;3.03;;;;;;;8.57;100.00;99662.34;5115096;28;20495;-66
2024/01/04 02:56:32;;;;;;;7.53;2.83;;;;;;;8.57;100.00;99674.00;5109815;28;20081;-67
2024/01/04 02:59:20;;;;;;;8.80;3.08;;;;;;;8.57;100.00;99681.34;5100400;28;20036;-67
2024/01/04 03:02:08;;;;;;;11.80;3.08;;;;;;;8.57;100.00;99674.00;5115252;28;20075;-67
2024/01/04 03:04:56;;;;;;;7.53;2.72;;;;;;;8.59;100.00;99681.88;5110473;28;20410;-67
2024/01/04 03:07:45;;;;;;;13.38;3.05;;;;;;;8.57;100.00;99679.44;5094706;28;20054;-67
2024/01/04 03:10:33;;;;;;;11.13;3.10;;;;;;;8.58;100.00;99683.75;5113528;28;20046;-68
2024/01/04 03:13:21;;;;;;;8.93;3.00;;;;;;;8.60;100.00;99694.34;5104280;27;20039;-67
2024/01/04 03:16:09;;;;;;;11.90;3.45;;;;;;;8.62;100.00;99689.44;5124370;27;20130;-67
2024/01/04 03:18:57;;;;;;;8.75;3.35;;;;;;;8.60;100.00;99687.00;5080603;28;20044;-68
2024/01/04 03:21:45;;;;;;;11.30;3.50;;;;;;;8.61;100.00;99695.97;5079029;28;20154;-67
2024/01/04 03:24:34;;;;;;;10.32;2.80;;;;;;;8.61;100.00;99712.25;5079990;28;20055;-67
2024/01/04 03:27:22;;;;;;;10.35;2.92;;;;;;;8.60;100.00;99716.06;5111156;27;20079;-67
2024/01/04 03:30:10;;;;;;;11.38;3.28;;;;;;;8.60;100.00;99716.88;5113968;28;20082;-67
2024/01/04 03:32:58;;;;;;;8.45;2.78;;;;;;;8.58;100.00;99720.97;5113294;28;20067;-67
2024/01/04 03:35:47;;;;;;;9.10;2.95;;;;;;;8.58;100.00;99724.50;5113410;28;20184;-67
2024/01/04 03:38:35;;;;;;;7.45;2.72;;;;;;;8.58;100.00;99729.13;5113869;28;20052;-67
2024/01/04 03:41:23;;;;;;;7.72;2.83;;;;;;;8.58;100.00;99724.50;5113458;28;20046;-67
2024/01/04 03:44:11;;;;;;;10.18;2.88;;;;;;;8.59;100.00;99737.00;5099688;28;20081;-67
2024/01/04 03:46:59;;;;;;;10.48;3.10;;;;;;;8.57;100.00;99733.75;5112626;28;20526;-67
2024/01/04 03:49:47;;;;;;;6.93;2.85;;;;;;;8.59;100.00;99741.63;5113822;28;20188;-67
2024/01/04 03:52:35;;;;;;;9.18;3.40;;;;;;;8.58;100.00;99746.22;5098823;28;20040;-67
2024/01/04 03:55:23;;;;;;;10.82;3.22;;;;;;;8.59;100.00;99747.03;5086070;28;20419;-67
2024/01/04 03:58:11;;;;;;;8.85;3.20;;;;;;;8.58;100.00;99745.41;5104147;28;20051;-67
2024/01/04 04:01:01;;;;;;;9.95;3.67;;;;;;;8.59;100.00;99750.56;5114049;28;20097;-68
2024/01/04 04:03:49;;;;;;;13.70;3.70;;;;;;;8.59;100.00;99756.00;5092912;28;20043;-67
2024/01/04 04:06:37;;;;;;;9.68;3.83;;;;;;;8.58;100.00;99761.69;5081364;28;20068;-67
2024/01/04 04:09:26;;;;;;;9.00;3.45;;;;;;;8.57;100.00;99760.09;5079741;28;20047;-68
2024/01/04 04:12:14;;;;;;;8.63;3.17;;;;;;;8.58;100.00;99762.50;5094087;28;20083;-67
2024/01/04 04:15:02;;;;;;;9.32;3.30;;;;;;;8.58;100.00;99764.41;5094497;28;20044;-67
2024/01/04 04:17:55;;;;;;;8.45;3.35;;;;;;;8.60;100.00;99770.38;5103766;28;20403;-67
2024/01/04 04:20:43;;;;;;;13.35;3.40;;;;;;;8.59;100.00;99775.00;5083744;28;20229;-67
2024/01/04 04:23:32;;;;;;;7.68;3.03;;;;;;;8.62;100.00;99773.63;5101925;28;20122;-66
2024/01/04 04:26:20;;;;;;;11.82;3.70;;;;;;;8.62;100.00;99779.06;5100460;28;20039;-68
2024/01/04 04:29:09;;;;;;;8.20;3.40;;;;;;;8.60;100.00;99781.22;5117810;28;20047;-67
2024/01/04 04:31:57;;;;;;;7.80;3.30;;;;;;;8.56;100.00;99786.41;5085705;27;20415;-67
2024/01/04 04:34:45;;;;;;;10.75;3.65;;;;;;;8.55;100.00;99794.84;5150542;27;20050;-69
2024/01/04 04:37:33;;;;;;;10.27;3.67;;;;;;;8.55;100.00;99800.28;5135351;27;20047;-67
2024/01/04 04:40:21;;;;;;;12.07;3.83;;;;;;;8.53;100.00;99804.06;5088523;28;20048;-66
2024/01/04 04:43:09;;;;;;;13.20;3.95;;;;;;;8.52;100.00;99817.94;5111123;27;20045;-67
2024/01/04 04:45:57;;;;;;;12.05;4.43;;;;;;;8.50;100.00;99815.50;5099465;28;20059;-66
2024/01/04 04:48:45;;;;;;;9.52;4.07;;;;;;;8.51;100.00;99816.28;5096717;28;20124;-66
2024/01/04 04:51:33;;;;;;;10.10;4.07;;;;;;;8.52;100.00;99817.94;5132594;27;20101;-67
2024/01/04 04:54:22;;;;;;;12.48;4.07;;;;;;;8.51;100.00;99821.72;5133460;27;20047;-66
2024/01/04 04:57:10;;;;;;;13.93;4.85;;;;;;;8.53;100.00;99825.78;5124204;27;20054;-66
2024/01/04 04:59:58;;;;;;;11.40;4.10;;;;;;;8.56;100.00;99823.59;5092595;28;20036;-67
2024/01/04 05:02:46;;;;;;;12.13;4.20;;;;;;;8.53;100.00;99827.69;5097751;27;20039;-68
2024/01/04 05:05:34;;;;;;;11.48;4.00;;;;;;;8.51;100.00;99830.69;5132780;27;20047;-67
2024/01/04 05:08:23;;;;;;;8.55;3.70;;;;;;;8.53;100.00;99833.13;5127860;27;20089;-66
2024/01/04 05:11:11;;;;;;;7.47;3.20;;;;;;;8.53;100.00;99835.84;5110431;28;20043;-67
2024/01/04 05:13:59;;;;;;;7.75;3.50;;;;;;;8.51;100.00;99844.28;5112907;28;20411;-66
2024/01/04 05:16:47;;;;;;;10.25;3.42;;;;;;;8.49;100.00;99841.03;5122118;27;20040;-67
2024/01/04 05:19:35;;;;;;;9.45;3.42;;;;;;;8.46;100.00;99849.69;5103050;28;20052;-68
2024/01/04 05:22:23;;;;;;;6.72;2.83;;;;;;;8.41;100.00;99847.00;5077142;28;20052;-67
2024/01/04 05:25:14;;;;;;;12.45;3.80;;;;;;;8.40;100.00;99848.13;5091903;28;20044;-66
2024/01/04 05:28:02;;;;;;;6.00;2.63;;;;;;;8.38;100.00;99849.44;5091052;28;20190;-67
2024/01/04 05:30:50;;;;;;;6.93;2.60;;;;;;;8.36;100.00;99855.16;5109818;27;20533;-67
2024/01/04 05:33:38;;;;;;;7.38;2.88;;;;;;;8.34;100.00;99865.47;5112594;28;20051;-66
2024/01/04 05:36:27;;;;;;;6.53;1.90;;;;;;;8.33;100.00;99866.56;5102193;28;20044;-67
2024/01/04 05:39:22;;;;;;;4.50;2.07;;;;;;;8.31;100.00;99863.31;5097656;28;20048;-66
2024/01/04 05:42:10;;;;;;;6.28;2.10;;;;;;;8.31;100.00;99871.44;5091527;28;20043;-69
2024/01/04 05:44:58;;;;;;;5.57;2.10;;;;;;;8.33;100.00;99878.22;5076511;28;20055;-67
2024/01/04 05:47:46;;;;;;;4.35;1.90;;;;;;;8.34;100.00;99881.75;5110123;28;20050;-67
2024/01/04 05:50:35;;;;;;;5.35;1.88;;;;;;;8.35;100.00;99880.69;5111767;28;20453;-67
2024/01/04 05:53:23;;;;;;;5.68;2.00;;;;;;;8.35;100.00;99885.28;5124087;27;20050;-68
2024/01/04 05:56:11;;;;;;;6.65;2.40;;;;;;;8.37;100.00;99893.94;5076396;28;20039;-68
2024/01/04 05:58:59;;;;;;;6.32;2.20;;;;;;;8.35;100.00;99899.69;5062419;28;20048;-68
2024/01/04 06:01:48;;;;;;;5.28;2.30;;;;;;;8.36;100.00;99900.47;5110766;28;20058;-70
2024/01/04 06:04:36;;;;;;;6.10;2.40;;;;;;;8.36;100.00;99906.72;4388109;28;10001398;-68
2024/01/04 06:07:24;;;;;;;5.03;2.20;;;;;;;8.39;100.00;99903.44;5077833;28;20051;-69
2024/01/04 06:10:16;;;;;;;5.72;2.13;;;;;;;8.39;100.00;99906.16;5073712;28;20404;-70
2024/01/04 06:13:07;;;;;;;7.25;2.50;;;;;;;8.44;100.00;99911.63;5084488;28;20086;-70
2024/01/04 06:15:57;;;;;;;6.30;2.63;;;;;;;8.45;100.00;99920.56;5094156;28;20052;-68
2024/01/04 06:18:49;;;;;;;7.32;2.65;;;;;;;8.45;100.00;99912.44;5070191;28;20550;-70
2024/01/04 06:21:38;;;;;;;7.75;2.80;;;;;;;8.50;100.00;99915.94;5077554;28;20067;-69
2024/01/04 06:24:26;;;;;;;10.00;3.28;;;;;;;8.51;100.00;99927.59;5088729;28;20052;-69
2024/01/04 06:27:14;;;;;;;8.52;3.10;;;;;;;8.51;100.00;99933.88;5092840;28;20055;-69
2024/01/04 06:30:02;;;;;;;7.18;3.25;;;;;;;8.52;100.00;99940.09;5108137;28;20531;-68
2024/01/04 06:32:51;;;;;;;9.18;3.50;;;;;;;8.52;100.00;99934.69;5100146;28;20124;-68
2024/01/04 06:35:39;;;;;;;8.52;3.53;;;;;;;8.51;100.00;99942.00;5059483;28;20492;-68
2024/01/04 06:38:27;;;;;;;7.57;3.08;;;;;;;8.50;100.00;99945.81;5100093;28;20050;-69
2024/01/04 06:41:16;;;;;;;8.20;2.90;;;;;;;8.51;100.00;99946.59;5090383;28;20101;-68
2024/01/04 06:44:05;;;;;;;11.90;3.63;;;;;;;8.50;100.00;99947.72;5114598;28;20043;-69
2024/01/04 06:46:53;;;;;;;9.75;3.63;;;;;;;8.48;100.00;99961.53;5114916;28;20130;-69
2024/01/04 06:49:41;;;;;;;9.48;3.22;;;;;;;8.46;100.00;99966.44;5111706;28;20048;-70
2024/01/04 06:52:29;;;;;;;6.85;3.10;;;;;;;8.44;100.00;99970.50;5107519;28;20063;-70
2024/01/04 06:55:18;;;;;;;8.55;3.30;;;;;;;8.45;100.00;99975.69;5093584;28;20483;-71
2024/01/04 06:58:08;;;;;;;7.15;2.90;;;;;;;8.46;100.00;99979.19;5110074;28;20058;-69
2024/01/04 07:00:56;;;;;;;7.95;3.10;;;;;;;8.46;100.00;99988.16;5093707;28;20130;-70
2024/01/04 07:03:46;;;;;;;7.68;3.10;;;;;;;8.47;100.00;100003.38;5091125;28;20622;-69
2024/01/04 07:06:34;;;;;;;7.97;2.75;;;;;;;8.45;100.00;100002.00;5079277;28;20040;-70
2024/01/04 07:09:22;;;;;;;6.53;2.90;;;;;;;8.42;100.00;100006.09;5092048;28;20586;-71
2024/01/04 07:12:10;;;;;;;6.93;2.58;;;;;;;8.38;100.00;100013.13;5085857;28;20426;-72
2024/01/04 07:14:58;;;;;;;6.13;2.60;;;;;;;8.37;100.00;100010.66;5083606;28;20355;-69
2024/01/04 07:17:48;;;;;;;7.35;2.63;;;;;;;8.37;100.00;100022.34;5087310;28;20097;-70
2024/01/04 07:20:41;;;;;;;5.97;2.35;;;;;;;8.35;100.00;100016.38;5095445;27;20047;-69
2024/01/04 07:23:30;;;;;;;7.30;2.70;;;;;;;8.36;100.00;100018.00;5118598;27;20054;-70
2024/01/04 07:26:18;;;;;;;10.07;2.90;;;;;;;8.36;100.00;100026.16;5102695;27;20243;-71
2024/01/04 07:29:06;;;;;;;5.03;2.40;;;;;;;8.32;100.00;100030.47;5116511;28;20144;-69
2024/01/04 07:31:55;;;;;;;7.07;2.60;;;;;;;8.25;100.00;100033.50;5101399;28;20044;-71
2024/01/04 07:34:43;;;;;;;9.38;3.17;;;;;;;8.23;100.00;100037.56;5097726;28;20040;-69
2024/01/04 07:37:39;;;;;;;5.45;2.40;;;;;;;8.20;100.00;100038.09;5084412;28;20142;-67
2024/01/04 07:40:27;;;;;;;5.20;2.33;;;;;;;8.20;100.00;100038.09;5090181;28;20496;-68
2024/01/04 07:43:15;;;;;;;6.22;2.38;;;;;;;8.20;100.00;100048.94;5100846;28;20404;-68
2024/01/04 07:46:03;;;;;;;4.68;2.08;;;;;;;8.20;100.00;100051.66;5099249;28;20044;-67
2024/01/04 07:48:51;;;;;;;5.45;2.30;;;;;;;8.21;100.00;100053.31;5099816;28;20073;-66
2024/01/04 07:51:42;;;;;;;6.32;2.30;;;;;;;8.21;100.00;100062.25;5115362;28;20061;-66
2024/01/04 07:54:30;;;;;;;4.97;2.08;;;;;;;8.21;100.00;100066.88;5099869;28;20380;-66
2024/01/04 07:57:32;;;;;;;4.40;2.47;;;;;;;8.23;100.00;100078.28;5101901;28;20077;-67
2024/01/04 08:00:21;;;;;;;3.30;1.90;;;;;;;8.24;100.00;100071.75;5099839;28;20082;-68
2024/01/04 08:03:09;;;;;;;3.60;1.70;;;;;;;8.28;100.00;100078.28;5098218;28;20040;-67
2024/01/04 08:05:57;;;;;;;2.13;1.35;;;;;;;8.31;100.00;100085.88;5098876;28;20046;-69
2024/01/04 08:08:45;;;;;;;3.35;1.92;;;;;;;8.33;100.00;100089.13;5113519;28;20115;-68
2024/01/04 08:11:33;;;;;;;6.63;1.85;;;;;;;8.31;100.00;100100.25;5099445;28;20569;-69
2024/01/04 08:14:21;;;;;;;3.83;1.95;;;;;;;8.33;100.00;100091.84;5114113;28;20067;-70
2024/01/04 08:17:09;;;;;;;8.80;2.97;;;;;;;8.34;100.00;100088.03;5085570;28;20031;-69
2024/01/04 08:19:57;;;;;;;3.97;1.90;;;;;;;8.33;100.00;100102.69;5104337;27;20047;-71
2024/01/04 08:22:45;;;;;;;4.55;2.00;;;;;;;8.35;100.00;100097.81;5120038;27;20485;-69
2024/01/04 08:25:33;;;;;;;5.35;2.22;;;;;;;8.37;100.00;100101.06;5119121;27;20050;-68
2024/01/04 08:28:22;;;;;;;6.63;2.70;;;;;;;8.39;100.00;100107.03;5106337;27;20115;-69
2024/01/04 08:31:11;;;;;;;6.25;2.80;;;;;;;8.40;100.00;100114.13;5134220;27;20514;-70
2024/01/04 08:33:59;;;;;;;13.25;3.60;;;;;;;8.40;100.00;100114.13;5084140;28;20047;-70
2024/01/04 08:36:47;;;;;;;7.38;2.70;;;;;;;8.42;100.00;100116.56;5085955;28;20050;-69
2024/01/04 08:39:35;;;;;;;5.88;2.53;;;;;;;8.41;100.00;100128.50;5085335;28;20526;-68
2024/01/04 08:42:23;;;;;;;9.68;3.40;;;;;;;8.38;100.00;100124.41;5067765;28;20135;-68
2024/01/04 08:45:12;;;;;;;6.93;2.50;;;;;;;8.36;100.00;100132.00;5083745;28;20554;-68
2024/01/04 08:48:00;;;;;;;8.82;2.70;;;;;;;8.32;100.00;100129.03;5107722;28;20047;-68
2024/01/04 08:50:48;;;;;;;6.15;2.25;;;;;;;8.32;100.00;100139.03;5106569;27;20142;-68
2024/01/04 08:53:37;;;;;;;7.15;2.50;;;;;;;8.32;100.00;100134.47;5136413;27;20047;-68
2024/01/04 08:56:25;;;;;;;7.82;2.70;;;;;;;8.32;100.00;100139.03;5128574;27;20059;-69
2024/01/04 08:59:13;;;;;;;7.63;2.30;;;;;;;8.33;100.00;100135.25;5135370;27;20040;-68
2024/01/04 09:02:01;;;;;;;6.22;2.20;;;;;;;8.37;100.00;100135.53;5124619;27;20039;-68
2024/01/04 09:04:51;;;;;;;9.63;3.55;;;;;;;8.40;100.00;100137.75;5135075;27;20176;-69
2024/01/04 09:07:39;;;;;;;6.68;2.58;;;;;;;8.44;100.00;100145.09;5104838;27;20055;-68
2024/01/04 09:10:28;;;;;;;6.78;2.47;;;;;;;8.46;100.00;100140.19;5097994;27;20563;-69
2024/01/04 09:13:16;;;;;;;9.18;3.83;;;;;;;8.48;100.00;100139.91;5134273;27;20237;-69
2024/01/04 09:16:05;;;;;;;8.65;3.08;;;;;;;8.48;100.00;100148.06;5105604;27;20377;-68
2024/01/04 09:18:53;;;;;;;7.32;2.92;;;;;;;8.48;100.00;100143.44;5129450;27;20035;-68
2024/01/04 09:21:46;;;;;;;9.50;3.17;;;;;;;8.47;100.00;100141.81;5098821;28;20087;-69
2024/01/04 09:24:34;;;;;;;9.82;3.22;;;;;;;8.43;100.00;100159.72;5096771;28;20043;-68
2024/01/04 09:27:23;;;;;;;7.95;3.00;;;;;;;8.40;100.00;100156.75;5113916;28;20148;-68
2024/01/04 09:30:12;;;;;;;10.00;3.17;;;;;;;8.41;100.00;100158.38;5089770;27;20054;-68
2024/01/04 09:33:00;;;;;;;7.40;3.10;;;;;;;8.41;100.00;100158.38;5101947;28;20051;-68
2024/01/04 09:35:48;;;;;;;8.18;2.63;;;;;;;8.38;100.00;100164.31;5096823;28;20050;-68
2024/01/04 09:38:38;;;;;;;7.43;3.20;;;;;;;8.37;100.00;100173.53;5084574;28;20122;-68
2024/01/04 09:41:29;;;;;;;9.15;2.97;;;;;;;8.35;100.00;100179.25;5071499;28;20047;-69
2024/01/04 09:44:17;;;;;;;7.28;2.63;;;;;;;8.35;100.00;100181.97;5097341;28;20126;-67
2024/01/04 09:47:08;;;;;;;10.82;2.75;;;;;;;8.36;100.00;100178.16;5111587;28;20070;-68
2024/01/04 09:49:58;;;;;;;6.80;2.53;;;;;;;8.36;100.00;100182.75;5096957;28;20507;-68
2024/01/04 09:52:47;;;;;;;6.50;3.17;;;;;;;8.38;100.00;100192.28;5097522;28;20055;-68
2024/01/04 09:55:35;;;;;;;7.70;2.60;;;;;;;8.41;100.00;100199.91;5082793;28;20484;-69
2024/01/04 09:58:23;;;;;;;8.38;2.72;;;;;;;8.41;100.00;100197.19;5099521;27;20043;-70
2024/01/04 10:01:11;;;;;;;7.88;2.63;;;;;;;8.42;100.00;100203.41;5097371;28;20043;-68
2024/01/04 10:04:03;;;;;;;6.15;2.22;;;;;;;8.43;100.00;100203.16;5112924;28;20487;-68
2024/01/04 10:06:55;;;;;;;8.45;2.78;;;;;;;8.46;100.00;100201.81;5097029;28;20145;-68
2024/01/04 10:09:49;;;;;;;5.28;2.40;;;;;;;8.46;100.00;100208.03;5082598;28;20407;-68
2024/01/04 10:12:38;;;;;;;7.80;2.20;;;;;;;8.49;100.00;100209.41;5078895;28;20502;-68
2024/01/04 10:15:25;;;;;;;7.32;2.35;;;;;;;8.47;100.00;100215.13;5078143;28;20052;-69
2024/01/04 10:18:14;;;;;;;5.18;2.00;;;;;;;8.47;100.00;100217.03;5093785;28;20051;-68
2024/01/04 10:21:05;;;;;;;4.18;1.75;;;;;;;8.51;100.00;100218.09;5053617;28;20051;-70
2024/01/04 10:24:00;;;;;;;4.05;1.67;;;;;;;8.48;100.00;100219.47;5038322;28;20044;-68
2024/01/04 10:27:01;;;;;;;5.90;2.22;;;;;;;8.49;100.00;100226.53;5087637;28;20048;-68
2024/01/04 10:29:51;;;;;;;3.55;1.52;;;;;;;8.50;100.00;100233.59;5087687;28;20104;-68
2024/01/04 10:32:39;;;;;;;4.30;1.83;;;;;;;8.53;100.00;100227.59;5083549;28;20142;-67
2024/01/04 10:35:29;;;;;;;6.93;2.00;;;;;;;8.52;100.00;100226.00;5118513;28;20055;-67
2024/01/04 10:38:18;;;;;;;5.28;1.88;;;;;;;8.50;100.00;100230.88;5139332;28;20048;-67
2024/01/04 10:41:06;;;;;;;4.22;1.60;;;;;;;8.49;100.00;100228.41;5120065;28;20051;-68
2024/01/04 10:44:07;;;;;;;2.83;1.63;;;;;;;8.50;100.00;100228.16;5136434;28;20035;-69
2024/01/04 10:46:58;;;;;;;4.63;1.60;;;;;;;8.48;100.00;100230.31;5093477;27;20375;-68
2024/01/04 10:49:48;;;;;;;4.15;1.98;;;;;;;8.51;100.00;100227.09;5135742;27;20130;-67
2024/01/04 10:52:36;;;;;;;6.20;1.90;;;;;;;8.57;100.00;100221.66;5106231;27;20079;-68
2024/01/04 10:55:25;;;;;;;4.90;2.00;;;;;;;8.59;100.00;100230.34;5080270;28;20051;-67
2024/01/04 10:58:13;;;;;;;5.78;2.17;;;;;;;8.62;100.00;100235.25;5067363;28;20411;-67
2024/01/04 11:01:01;;;;;;;5.30;2.10;;;;;;;8.65;100.00;100237.41;5079816;28;20040;-68
2024/01/04 11:03:49;;;;;;;3.60;1.60;;;;;;;8.67;100.00;100246.09;5093357;28;20161;-67
2024/01/04 11:06:40;;;;;;;5.95;2.08;;;;;;;8.70;100.00;100242.84;5117468;27;20053;-70
2024/01/04 11:09:28;;;;;;;5.22;2.30;;;;;;;8.67;100.00;100244.19;5093731;27;20099;-68
2024/01/04 11:12:16;;;;;;;4.90;1.88;;;;;;;8.65;100.00;100245.56;5105431;27;20050;-68
2024/01/04 11:15:05;;;;;;;6.38;1.80;;;;;;;8.63;100.00;100245.00;5106779;27;20505;-69
2024/01/04 11:18:19;;;;;;;6.85;2.10;;;;;;;8.68;100.00;100245.84;5135576;27;20039;-68
2024/01/04 11:21:41;;;;;;;6.45;2.40;;;;;;;8.80;100.00;100242.84;5119543;27;20043;-68
2024/01/04 11:24:43;;;;;;;5.70;2.10;;;;;;;8.75;100.00;100237.41;5095925;27;20039;-69
2024/01/04 11:27:32;;;;;;;5.80;2.00;;;;;;;8.72;100.00;100240.69;5134560;27;20554;-67
2024/01/04 11:30:20;;;;;;;6.72;2.05;;;;;;;8.73;100.00;100231.44;5134803;27;20039;-68
2024/01/04 11:33:09;;;;;;;5.28;1.95;;;;;;;8.74;100.00;100233.09;5135563;27;20043;-68
2024/01/04 11:35:57;;;;;;;5.35;2.20;;;;;;;8.76;100.00;100233.63;5106294;27;20130;-68
2024/01/04 11:38:46;;;;;;;7.28;2.33;;;;;;;8.77;100.00;100227.09;5051307;28;20051;-67
2024/01/04 11:41:38;;;;;;;4.90;2.60;;;;;;;8.80;100.00;100234.69;5065104;28;20044;-67
2024/01/04 11:44:36;;;;;;;4.47;2.00;;;;;;;8.81;100.00;100230.91;5076604;28;20408;-69
2024/01/04 11:47:27;;;;;;;5.65;2.25;;;;;;;8.80;100.00;100226.56;5093513;28;20055;-68
2024/01/04 11:50:21;;;;;;;6.85;2.17;;;;;;;8.81;100.00;100233.63;5098463;28;20513;-67
2024/01/04 11:53:13;;;;;;;4.75;2.00;;;;;;;8.81;100.00;100238.25;5084381;27;20098;-67
2024/01/04 11:56:05;;;;;;;5.88;1.95;;;;;;;8.82;100.00;100246.13;5120432;27;20084;-68
2024/01/04 11:59:04;;;;;;;5.03;2.00;;;;;;;8.85;100.00;100240.16;5134743;27;20514;-68
2024/01/04 12:01:52;;;;;;;5.10;2.55;;;;;;;8.87;100.00;100232.53;5094581;28;20051;-68
2024/01/04 12:04:40;;;;;;;5.13;1.83;;;;;;;8.89;100.00;100237.69;5100467;28;20492;-68
2024/01/04 12:07:30;;;;;;;5.38;1.90;;;;;;;8.88;100.00;100236.91;5085886;28;20048;-68
2024/01/04 12:10:18;;;;;;;6.15;2.08;;;;;;;8.87;100.00;100235.25;5101781;28;20051;-68
2024/01/04 12:13:06;;;;;;;4.22;1.55;;;;;;;8.86;100.00;100228.19;5097711;28;20052;-66
2024/01/04 12:15:54;;;;;;;5.32;1.95;;;;;;;8.83;100.00;100227.94;5097421;28;20115;-67
2024/01/04 12:18:45;;;;;;;5.63;2.10;;;;;;;8.85;100.00;100240.16;5089587;27;20050;-69
2024/01/04 12:21:33;;;;;;;7.30;2.13;;;;;;;8.82;100.00;100239.88;5093258;28;20052;-69
2024/01/04 12:24:22;;;;;;;6.38;2.72;;;;;;;8.83;100.00;100239.63;5118790;27;20043;-70
2024/01/04 12:27:10;;;;;;;7.07;2.47;;;;;;;8.77;100.00;100237.97;5111755;28;20051;-69
2024/01/04 12:29:58;;;;;;;6.60;2.28;;;;;;;8.71;100.00;100236.34;5114632;28;20136;-68
2024/01/04 12:32:47;;;;;;;8.98;2.45;;;;;;;8.66;100.00;100239.03;5071615;28;20093;-68
2024/01/04 12:35:35;;;;;;;7.90;2.55;;;;;;;8.62;100.00;100244.19;5099809;28;20123;-67
2024/01/04 12:38:24;;;;;;;5.30;2.05;;;;;;;8.62;100.00;100240.69;5098839;28;20075;-67
2024/01/04 12:41:22;;;;;;;7.22;2.40;;;;;;;8.63;100.00;100236.84;5102586;28;20122;-67
2024/01/04 12:44:11;;;;;;;3.97;2.17;;;;;;;8.65;100.00;100246.38;5072357;28;20071;-68
2024/01/04 12:47:05;;;;;;;4.72;1.75;;;;;;;8.64;100.00;100233.06;5099275;28;20130;-68
2024/01/04 12:49:57;;;;;;;4.10;1.63;;;;;;;8.63;100.00;100231.44;5085060;28;20044;-67
2024/01/04 12:52:45;;;;;;;4.25;1.67;;;;;;;8.63;100.00;100228.72;5077882;28;20476;-69
2024/01/04 12:55:34;;;;;;;2.80;1.48;;;;;;;8.62;100.00;100235.25;5078319;28;20471;-68
2024/01/04 12:58:22;;;;;;;2.63;1.45;;;;;;;8.62;100.00;100244.19;5094968;28;20102;-67
2024/01/04 13:01:10;;;;;;;5.07;1.80;;;;;;;8.65;100.00;100240.13;5086278;28;20048;-66
2024/01/04 13:03:59;;;;;;;4.05;1.45;;;;;;;8.65;100.00;100245.56;5093376;28;20101;-69
2024/01/04 13:06:47;;;;;;;3.78;1.73;;;;;;;8.68;100.00;100239.56;5085802;28;20044;-67
2024/01/04 13:09:36;;;;;;;8.63;3.00;;;;;;;8.68;100.00;100242.28;5077852;28;20526;-67
2024/01/04 13:12:24;;;;;;;4.65;1.95;;;;;;;8.68;100.00;100239.56;5105940;27;20110;-68